Time;durP1;ratioP1;P1;durP2;ratioP2;P2;SDS_P1;SDS_P2;PMS_P1;PMS_P2;Temp;Humidity;BMP_temperature;BMP_pressure;BME280_temperature;BME280_humidity;BME280_pressure;Samples;Min_cycle;Max_cycle;Signal;HPM_P1;HPM_P2
2023/08/25 00:00:24;;;;;;;2.45;1.38;;;20.30;99.90;;;;;;4148331;28;20173;-89
2023/08/25 00:02:25;;;;;;;6.15;1.50;;;20.30;99.90;;;;;;4148241;28;20224;-89
2023/08/25 00:04:26;;;;;;;1.95;1.30;;;20.20;99.90;;;;;;4148218;28;20627;-91
2023/08/25 00:06:26;;;;;;;2.58;1.23;;;20.20;99.90;;;;;;4131881;28;20177;-89
2023/08/25 00:08:27;;;;;;;1.83;0.85;;;20.20;99.90;;;;;;4148081;28;20177;-89
2023/08/25 00:10:28;;;;;;;2.80;1.10;;;20.10;99.90;;;;;;4148114;28;20215;-89
2023/08/25 00:12:28;;;;;;;2.13;1.02;;;20.10;99.90;;;;;;4131738;28;20201;-90
2023/08/25 00:14:29;;;;;;;2.72;1.17;;;20.10;99.90;;;;;;4148395;28;20222;-89
2023/08/25 00:16:30;;;;;;;2.47;1.67;;;20.10;99.90;;;;;;4131995;28;20181;-89
2023/08/25 00:18:31;;;;;;;2.78;1.45;;;20.10;99.90;;;;;;4131997;28;20611;-89
2023/08/25 00:20:31;;;;;;;2.25;1.30;;;20.10;99.90;;;;;;4148113;28;20204;-88
2023/08/25 00:22:32;;;;;;;4.78;1.50;;;20.10;99.90;;;;;;4147986;28;20686;-89
2023/08/25 00:24:33;;;;;;;5.60;1.50;;;20.20;99.90;;;;;;4148017;28;20169;-88
2023/08/25 00:26:36;;;;;;;1.83;1.17;;;20.30;99.90;;;;;;4131829;28;20193;-89
2023/08/25 00:28:37;;;;;;;3.33;1.02;;;20.30;99.90;;;;;;4148097;28;20156;-90
2023/08/25 00:30:38;;;;;;;4.57;1.15;;;20.20;99.90;;;;;;4148013;28;20307;-89
2023/08/25 00:32:40;;;;;;;3.35;1.13;;;20.10;99.90;;;;;;4131808;28;20209;-88
2023/08/25 00:34:40;;;;;;;1.70;1.17;;;20.00;99.90;;;;;;4131812;28;20730;-89
2023/08/25 00:36:41;;;;;;;1.95;1.10;;;20.00;99.90;;;;;;4147799;28;20598;-89
2023/08/25 00:38:42;;;;;;;3.53;1.10;;;20.00;99.90;;;;;;4132048;28;20506;-92
2023/08/25 00:40:43;;;;;;;2.00;1.00;;;20.00;99.90;;;;;;4131891;28;20186;-88
2023/08/25 00:42:45;;;;;;;1.98;1.08;;;20.00;99.90;;;;;;4131811;28;20182;-88
2023/08/25 00:44:45;;;;;;;1.88;1.20;;;20.10;99.90;;;;;;4131574;28;20205;-89
2023/08/25 00:46:46;;;;;;;1.52;1.10;;;20.20;99.90;;;;;;4131610;28;20177;-88
2023/08/25 00:48:48;;;;;;;6.47;2.22;;;20.20;99.90;;;;;;4131688;28;20260;-89
2023/08/25 00:50:49;;;;;;;3.30;1.10;;;20.10;99.90;;;;;;4131501;28;20248;-89
2023/08/25 00:52:50;;;;;;;1.60;0.88;;;20.10;99.90;;;;;;4148150;28;20173;-88
2023/08/25 00:54:53;;;;;;;1.58;0.82;;;20.20;99.90;;;;;;4131400;28;20249;-88
2023/08/25 00:56:55;;;;;;;1.27;0.80;;;20.10;99.90;;;;;;4131832;28;20188;-88
2023/08/25 00:58:56;;;;;;;3.83;0.95;;;20.20;99.90;;;;;;4150958;28;20255;-89
2023/08/25 01:00:58;;;;;;;1.23;0.73;;;20.20;99.90;;;;;;4150929;28;20177;-88
2023/08/25 01:03:00;;;;;;;1.67;1.08;;;20.20;99.90;;;;;;4150594;28;20173;-88
2023/08/25 01:05:01;;;;;;;4.03;0.90;;;20.20;99.90;;;;;;4150480;28;20204;-89
2023/08/25 01:07:02;;;;;;;2.40;0.93;;;20.30;99.90;;;;;;4134235;28;20640;-89
2023/08/25 01:09:04;;;;;;;2.28;0.70;;;20.20;99.90;;;;;;4150665;28;20234;-90
2023/08/25 01:11:26;;;;;;;1.15;0.80;;;20.20;99.90;;;;;;4134302;28;20220;-88
2023/08/25 01:13:36;;;;;;;5.38;0.90;;;20.30;99.90;;;;;;4150502;28;20642;-89
2023/08/25 01:15:42;;;;;;;1.08;0.70;;;20.20;99.90;;;;;;4134247;28;20173;-89
2023/08/25 01:17:45;;;;;;;1.50;1.02;;;20.30;99.90;;;;;;4134237;28;20563;-89
2023/08/25 01:19:58;;;;;;;1.23;0.73;;;20.30;99.90;;;;;;4150660;28;20227;-89
2023/08/25 01:22:00;;;;;;;5.57;1.00;;;20.30;99.90;;;;;;4134043;28;20702;-90
2023/08/25 01:24:12;;;;;;;1.75;0.63;;;20.40;99.90;;;;;;4134128;28;20272;-89
2023/08/25 01:26:13;;;;;;;1.20;0.70;;;20.40;99.90;;;;;;4150542;28;20176;-88
2023/08/25 01:28:18;;;;;;;2.65;1.08;;;20.40;99.90;;;;;;4134210;28;20217;-88
2023/08/25 01:30:21;;;;;;;4.32;1.38;;;20.40;99.90;;;;;;4150218;28;20205;-89
2023/08/25 01:32:22;;;;;;;1.05;0.70;;;20.40;99.90;;;;;;4150287;28;20617;-89
2023/08/25 01:34:24;;;;;;;2.78;0.73;;;20.30;99.90;;;;;;4150389;28;20211;-89
2023/08/25 01:36:53;;;;;;;2.85;1.20;;;20.30;99.90;;;;;;4150278;28;20185;-87
2023/08/25 01:39:15;;;;;;;0.90;0.60;;;20.30;99.90;;;;;;4109375;28;20731;-88
2023/08/25 01:42:02;;;;;;;0.68;0.57;;;20.30;99.90;;;;;;4149967;28;20200;-89
2023/08/25 01:44:06;;;;;;;1.10;0.80;;;20.40;99.90;;;;;;4150276;28;20270;-88
2023/08/25 01:46:09;;;;;;;2.40;0.82;;;20.40;99.90;;;;;;4150150;28;20169;-89
2023/08/25 01:48:15;;;;;;;1.52;0.55;;;20.40;99.90;;;;;;4150376;28;20211;-89
2023/08/25 01:50:16;;;;;;;3.20;0.95;;;20.40;99.90;;;;;;4149996;28;20208;-89
2023/08/25 01:52:17;;;;;;;1.02;0.57;;;20.40;99.90;;;;;;4150140;28;20200;-89
2023/08/25 01:54:19;;;;;;;1.67;0.85;;;20.40;99.90;;;;;;4133928;28;20185;-89
2023/08/25 01:56:20;;;;;;;1.48;1.00;;;20.40;99.90;;;;;;4133725;28;20252;-89
2023/08/25 01:58:20;;;;;;;0.80;0.70;;;20.40;99.90;;;;;;4133840;28;20528;-89
2023/08/25 02:00:21;;;;;;;1.35;0.82;;;20.40;99.90;;;;;;4133649;28;20272;-89
2023/08/25 02:02:22;;;;;;;1.75;0.75;;;20.40;99.90;;;;;;4151019;28;20662;-89
2023/08/25 02:04:23;;;;;;;1.23;0.98;;;20.40;99.90;;;;;;4133721;28;20170;-89
2023/08/25 02:06:24;;;;;;;2.33;1.02;;;20.40;99.90;;;;;;4149564;28;20376;-88
2023/08/25 02:08:25;;;;;;;1.75;1.15;;;20.50;99.90;;;;;;4149658;28;20173;-89
2023/08/25 02:10:26;;;;;;;1.08;0.68;;;20.40;99.90;;;;;;4133422;28;20198;-89
2023/08/25 02:12:26;;;;;;;2.28;0.75;;;20.40;99.90;;;;;;4133173;28;20269;-91
2023/08/25 02:14:27;;;;;;;1.23;0.70;;;20.40;99.90;;;;;;4133250;28;20252;-89
2023/08/25 02:16:28;;;;;;;2.05;1.05;;;20.30;99.90;;;;;;4149526;28;20177;-89
2023/08/25 02:18:29;;;;;;;1.23;0.55;;;20.30;99.90;;;;;;4133403;28;20209;-88
2023/08/25 02:20:29;;;;;;;1.30;0.88;;;20.20;99.90;;;;;;4133208;28;20170;-88
2023/08/25 02:22:30;;;;;;;0.80;0.70;;;20.20;99.90;;;;;;4133364;28;20193;-89
2023/08/25 02:24:31;;;;;;;0.88;0.50;;;20.30;99.90;;;;;;4149667;28;20227;-89
2023/08/25 02:26:31;;;;;;;3.00;1.08;;;20.40;99.90;;;;;;4133085;28;20209;-89
2023/08/25 02:28:32;;;;;;;1.00;0.75;;;20.40;99.90;;;;;;4133197;28;20181;-88
2023/08/25 02:30:34;;;;;;;0.60;0.50;;;20.50;99.90;;;;;;4133238;28;20606;-88
2023/08/25 02:32:34;;;;;;;0.93;0.68;;;20.60;99.90;;;;;;4149488;28;20287;-88
2023/08/25 02:34:38;;;;;;;0.70;0.60;;;20.60;99.90;;;;;;4133193;28;20239;-88
2023/08/25 02:36:39;;;;;;;2.28;0.90;;;20.70;99.90;;;;;;4133153;28;20173;-89
2023/08/25 02:38:39;;;;;;;1.10;0.73;;;20.60;99.90;;;;;;4133144;28;20203;-88
2023/08/25 02:40:40;;;;;;;0.85;0.60;;;20.60;99.90;;;;;;4133203;28;20178;-88
2023/08/25 02:42:41;;;;;;;0.95;0.70;;;20.60;99.90;;;;;;4133046;28;20197;-90
2023/08/25 02:44:41;;;;;;;2.15;0.82;;;20.70;99.90;;;;;;4132951;28;20177;-90
2023/08/25 02:46:43;;;;;;;0.80;0.60;;;20.70;99.90;;;;;;4149131;28;20180;-89
2023/08/25 02:48:43;;;;;;;2.08;0.60;;;20.80;99.90;;;;;;4149479;28;20243;-89
2023/08/25 02:50:44;;;;;;;1.33;0.70;;;20.90;99.90;;;;;;4149136;28;20204;-90
2023/08/25 02:52:45;;;;;;;1.63;0.70;;;20.80;99.90;;;;;;4132876;28;20174;-89
2023/08/25 02:54:46;;;;;;;1.00;0.70;;;20.80;99.90;;;;;;4132619;28;20192;-89
2023/08/25 02:56:46;;;;;;;0.93;0.50;;;20.80;99.90;;;;;;4132604;28;20177;-89
2023/08/25 02:58:47;;;;;;;3.20;1.10;;;20.70;99.90;;;;;;4148955;28;20582;-89
2023/08/25 03:00:48;;;;;;;0.98;0.50;;;20.60;99.90;;;;;;4148819;28;20267;-89
2023/08/25 03:02:50;;;;;;;0.77;0.60;;;20.60;99.90;;;;;;4132558;28;20631;-89
2023/08/25 03:04:52;;;;;;;1.90;0.90;;;20.70;99.90;;;;;;4149051;28;20512;-92
2023/08/25 03:06:54;;;;;;;1.38;0.93;;;20.70;99.90;;;;;;4149094;28;20223;-94
2023/08/25 03:08:55;;;;;;;0.70;0.68;;;20.80;99.90;;;;;;4132871;28;20173;-89
2023/08/25 03:10:55;;;;;;;1.55;0.90;;;20.80;99.90;;;;;;4148514;28;20248;-89
2023/08/25 03:12:56;;;;;;;4.32;0.82;;;20.80;99.90;;;;;;4132462;28;20214;-89
2023/08/25 03:14:57;;;;;;;1.13;0.82;;;20.80;99.90;;;;;;4132428;28;20663;-88
2023/08/25 03:16:57;;;;;;;0.75;0.55;;;20.80;99.90;;;;;;4132540;28;20784;-89
2023/08/25 03:18:58;;;;;;;0.80;0.57;;;20.90;99.90;;;;;;4132496;28;20184;-89
2023/08/25 03:21:01;;;;;;;1.73;0.77;;;20.90;99.90;;;;;;4148264;28;20183;-89
2023/08/25 03:23:02;;;;;;;3.13;0.70;;;20.90;99.90;;;;;;4148482;28;20180;-89
2023/08/25 03:25:03;;;;;;;1.77;0.82;;;20.90;99.90;;;;;;4148558;28;20181;-88
2023/08/25 03:27:03;;;;;;;1.25;1.15;;;20.90;99.90;;;;;;4132092;28;20232;-88
2023/08/25 03:29:04;;;;;;;0.98;0.50;;;21.00;99.90;;;;;;4132263;28;20213;-92
2023/08/25 03:31:05;;;;;;;1.15;0.82;;;21.00;99.90;;;;;;4132126;28;20221;-89
2023/08/25 03:33:07;;;;;;;2.45;1.33;;;20.90;99.90;;;;;;4148391;28;20173;-89
2023/08/25 03:35:08;;;;;;;1.17;0.68;;;20.90;99.90;;;;;;4131968;28;20165;-89
2023/08/25 03:37:11;;;;;;;1.60;0.90;;;20.90;99.90;;;;;;4148512;28;20774;-91
2023/08/25 03:39:12;;;;;;;1.90;1.00;;;21.00;99.90;;;;;;4149157;28;20544;-88
2023/08/25 03:41:13;;;;;;;2.00;0.93;;;21.10;99.90;;;;;;4132679;28;20277;-88
2023/08/25 03:43:14;;;;;;;1.70;0.68;;;21.10;99.90;;;;;;4132386;28;20671;-88
2023/08/25 03:45:15;;;;;;;3.15;1.10;;;21.00;99.90;;;;;;4132407;28;20199;-88
2023/08/25 03:47:16;;;;;;;1.65;1.05;;;20.80;99.90;;;;;;4132313;28;20177;-89
2023/08/25 03:49:17;;;;;;;2.55;1.13;;;20.90;99.90;;;;;;4132060;28;20181;-90
2023/08/25 03:51:18;;;;;;;1.58;0.98;;;20.90;99.90;;;;;;4131906;28;20280;-89
2023/08/25 03:53:19;;;;;;;0.95;0.75;;;21.00;99.90;;;;;;4148313;28;20587;-89
2023/08/25 03:55:19;;;;;;;2.17;0.80;;;21.10;99.90;;;;;;4132178;28;20193;-89
2023/08/25 03:57:20;;;;;;;2.15;0.93;;;21.10;99.90;;;;;;4148226;28;20177;-90
2023/08/25 03:59:21;;;;;;;3.42;1.00;;;21.20;99.90;;;;;;4148065;28;20176;-89
2023/08/25 04:01:22;;;;;;;1.17;0.70;;;21.20;99.90;;;;;;4131770;28;20208;-89
2023/08/25 04:03:23;;;;;;;1.55;0.90;;;21.10;99.90;;;;;;4132191;28;20232;-89
2023/08/25 04:05:23;;;;;;;1.38;0.98;;;21.10;99.90;;;;;;4132016;28;20663;-88
2023/08/25 04:07:24;;;;;;;1.45;0.90;;;21.00;99.90;;;;;;4132016;28;20174;-92
2023/08/25 04:09:25;;;;;;;1.05;0.77;;;21.00;99.90;;;;;;4148067;28;20574;-89
2023/08/25 04:11:32;;;;;;;7.93;1.63;;;21.10;99.90;;;;;;4132469;28;20240;-88
2023/08/25 04:13:33;;;;;;;2.58;1.27;;;21.10;99.90;;;;;;4148197;28;20195;-89
2023/08/25 04:15:33;;;;;;;1.95;1.23;;;21.10;99.90;;;;;;4132479;28;20181;-89
2023/08/25 04:17:36;;;;;;;1.52;0.80;;;21.10;99.90;;;;;;4148398;28;20196;-88
2023/08/25 04:19:37;;;;;;;1.50;0.70;;;21.10;99.90;;;;;;4147914;28;20264;-90
2023/08/25 04:21:38;;;;;;;2.05;1.00;;;21.00;99.90;;;;;;4131829;28;20611;-88
2023/08/25 04:23:38;;;;;;;1.13;0.82;;;21.00;99.90;;;;;;4131967;28;20174;-90
2023/08/25 04:25:39;;;;;;;1.33;0.95;;;21.10;99.90;;;;;;4131962;28;20166;-89
2023/08/25 04:27:40;;;;;;;8.23;1.23;;;21.10;99.90;;;;;;4147995;28;20181;-89
2023/08/25 04:29:41;;;;;;;1.77;0.95;;;21.10;99.90;;;;;;4131784;28;20201;-88
2023/08/25 04:31:42;;;;;;;1.48;0.80;;;21.20;99.90;;;;;;4147933;28;20197;-89
2023/08/25 04:33:47;;;;;;;1.67;1.02;;;21.20;99.90;;;;;;4151684;28;20173;-88
2023/08/25 04:35:48;;;;;;;4.88;1.20;;;21.10;99.90;;;;;;4134939;28;20176;-89
2023/08/25 04:37:50;;;;;;;4.03;1.15;;;21.10;99.90;;;;;;4151133;28;20173;-89
2023/08/25 04:39:52;;;;;;;1.77;0.70;;;21.10;99.90;;;;;;4151280;28;20611;-89
2023/08/25 04:41:54;;;;;;;2.67;1.23;;;21.10;99.90;;;;;;4151066;28;20219;-89
2023/08/25 04:43:55;;;;;;;1.77;0.70;;;21.10;99.90;;;;;;4151120;28;20173;-89
2023/08/25 04:45:56;;;;;;;5.50;1.42;;;21.10;99.90;;;;;;4134547;28;20243;-89
2023/08/25 04:47:59;;;;;;;1.80;0.75;;;21.00;99.90;;;;;;4134959;28;20177;-89
2023/08/25 04:50:03;;;;;;;2.05;0.90;;;21.00;99.90;;;;;;4151001;28;20648;-91
2023/08/25 04:52:04;;;;;;;1.65;0.80;;;21.00;99.90;;;;;;4150873;28;20543;-89
2023/08/25 04:54:05;;;;;;;1.83;0.90;;;21.10;99.90;;;;;;4150823;28;20169;-89
2023/08/25 04:56:07;;;;;;;1.75;0.85;;;21.10;99.90;;;;;;4150702;28;20177;-90
2023/08/25 04:58:08;;;;;;;2.65;0.68;;;21.10;99.90;;;;;;4134646;28;20673;-89
2023/08/25 05:00:10;;;;;;;4.10;1.27;;;21.20;99.90;;;;;;4150730;28;20207;-89
2023/08/25 05:02:13;;;;;;;2.47;0.95;;;21.20;99.90;;;;;;4134384;28;20189;-89
2023/08/25 05:04:14;;;;;;;3.05;1.10;;;21.20;99.90;;;;;;4150677;28;20557;-89
2023/08/25 05:06:15;;;;;;;1.85;0.82;;;21.10;99.90;;;;;;4134482;28;20181;-89
2023/08/25 05:08:16;;;;;;;4.78;1.00;;;21.10;99.90;;;;;;4134387;28;20268;-88
2023/08/25 05:10:17;;;;;;;1.80;0.88;;;20.90;99.90;;;;;;4134253;28;20209;-87
2023/08/25 05:12:19;;;;;;;2.58;1.02;;;20.70;99.90;;;;;;4134334;28;20196;-87
2023/08/25 05:14:20;;;;;;;0.98;0.90;;;20.80;99.90;;;;;;4150611;28;20181;-89
2023/08/25 05:16:21;;;;;;;4.43;1.42;;;21.10;99.90;;;;;;4150352;28;20224;-89
2023/08/25 05:18:26;;;;;;;2.03;1.50;;;20.80;99.90;;;;;;4134891;28;20217;-88
2023/08/25 05:20:27;;;;;;;2.17;1.08;;;20.60;99.90;;;;;;4134192;28;20177;-90
2023/08/25 05:22:27;;;;;;;3.47;1.30;;;20.50;99.90;;;;;;4150080;28;20215;-89
2023/08/25 05:24:29;;;;;;;2.70;1.20;;;20.30;99.90;;;;;;4134036;28;20177;-87
2023/08/25 05:26:31;;;;;;;1.38;1.02;;;20.30;99.90;;;;;;4134100;28;20534;-88
2023/08/25 05:28:34;;;;;;;16.10;1.98;;;20.40;99.90;;;;;;4150393;28;20706;-88
2023/08/25 05:30:36;;;;;;;1.40;1.13;;;20.50;99.90;;;;;;4134030;28;20209;-88
2023/08/25 05:32:39;;;;;;;6.53;1.88;;;20.50;99.90;;;;;;4150149;28;20192;-88
2023/08/25 05:34:58;;;;;;;3.05;1.30;;;20.40;99.90;;;;;;4136373;28;20319;-87
2023/08/25 05:36:59;;;;;;;2.28;1.55;;;20.40;99.90;;;;;;4133872;28;20169;-89
2023/08/25 05:39:00;;;;;;;1.77;1.00;;;20.50;99.90;;;;;;4133957;28;20277;-88
2023/08/25 05:41:00;;;;;;;1.63;1.20;;;20.60;99.90;;;;;;4133743;28;20208;-88
2023/08/25 05:43:01;;;;;;;1.92;1.15;;;20.60;99.90;;;;;;4133486;28;20177;-88
2023/08/25 05:45:03;;;;;;;4.03;1.52;;;20.50;99.90;;;;;;4133523;28;20161;-88
2023/08/25 05:47:04;;;;;;;6.93;1.42;;;20.40;99.90;;;;;;4133633;28;20178;-86
2023/08/25 05:49:05;;;;;;;5.53;2.45;;;20.30;99.90;;;;;;4133454;28;20263;-89
2023/08/25 05:51:05;;;;;;;4.22;1.67;;;20.20;99.90;;;;;;4149604;28;20223;-89
2023/08/25 05:53:06;;;;;;;1.70;1.08;;;20.30;99.90;;;;;;4133646;28;20197;-89
2023/08/25 05:55:08;;;;;;;3.70;1.42;;;20.50;99.90;;;;;;4143176;22;20214;-86
2023/08/25 05:57:09;;;;;;;2.78;1.52;;;20.50;99.90;;;;;;4101011;29;20214;-85
2023/08/25 05:59:09;;;;;;;3.50;1.30;;;20.30;99.90;;;;;;4101215;29;20633;-86
2023/08/25 06:01:11;;;;;;;2.25;1.27;;;20.10;99.90;;;;;;4116886;28;20209;-86
2023/08/25 06:03:11;;;;;;;4.20;1.67;;;20.10;99.90;;;;;;4085214;29;20175;-86
2023/08/25 06:05:12;;;;;;;10.02;2.53;;;20.10;99.90;;;;;;4101018;29;20175;-85
2023/08/25 06:07:13;;;;;;;2.50;1.30;;;20.20;99.90;;;;;;4084831;28;20178;-85
2023/08/25 06:09:17;;;;;;;2.45;1.50;;;20.60;99.90;;;;;;4101075;29;20183;-86
2023/08/25 06:11:18;;;;;;;4.15;1.52;;;20.70;99.90;;;;;;4100666;28;20238;-85
2023/08/25 06:13:19;;;;;;;4.35;1.70;;;20.60;99.90;;;;;;4100881;29;20175;-85
2023/08/25 06:15:19;;;;;;;3.47;1.92;;;20.50;99.90;;;;;;4100935;29;20269;-85
2023/08/25 06:17:20;;;;;;;2.97;1.92;;;20.50;99.90;;;;;;4100901;28;20178;-85
2023/08/25 06:19:21;;;;;;;3.35;1.52;;;20.60;99.90;;;;;;4100789;29;20194;-85
2023/08/25 06:21:21;;;;;;;3.90;1.65;;;20.60;99.90;;;;;;4100687;28;20285;-86
2023/08/25 06:23:22;;;;;;;3.13;1.55;;;20.70;99.90;;;;;;4100679;28;20186;-85
2023/08/25 06:25:23;;;;;;;2.03;1.30;;;20.70;99.90;;;;;;4100666;28;20206;-85
2023/08/25 06:27:24;;;;;;;4.45;1.42;;;20.90;99.90;;;;;;4084539;29;20199;-85
2023/08/25 06:29:25;;;;;;;4.65;1.40;;;21.10;99.90;;;;;;4084649;29;20184;-85
2023/08/25 06:31:30;;;;;;;2.80;1.55;;;21.40;99.90;;;;;;4084531;28;20211;-85
2023/08/25 06:33:31;;;;;;;3.72;1.88;;;21.60;99.90;;;;;;4084722;29;20188;-85
2023/08/25 06:35:31;;;;;;;2.95;1.70;;;21.80;99.90;;;;;;4100458;29;20274;-85
2023/08/25 06:37:32;;;;;;;2.17;1.50;;;22.00;99.90;;;;;;4100412;29;20171;-85
2023/08/25 06:39:33;;;;;;;2.35;1.60;;;22.20;99.90;;;;;;4100048;29;20226;-85
2023/08/25 06:41:33;;;;;;;2.38;1.38;;;22.30;99.90;;;;;;4100206;28;20775;-85
2023/08/25 06:43:42;;;;;;;2.17;1.58;;;22.30;99.90;;;;;;4100927;28;20178;-85
2023/08/25 06:45:42;;;;;;;3.67;2.00;;;22.30;99.90;;;;;;4084186;29;20190;-85
2023/08/25 06:47:45;;;;;;;1.90;1.23;;;22.30;99.90;;;;;;4099959;29;20625;-85
2023/08/25 06:49:46;;;;;;;2.58;1.50;;;22.30;99.90;;;;;;4084284;28;20661;-85
2023/08/25 06:51:47;;;;;;;4.35;1.73;;;22.20;99.90;;;;;;4101421;28;20198;-85
2023/08/25 06:53:47;;;;;;;2.60;1.60;;;22.10;99.90;;;;;;4100237;29;20187;-85
2023/08/25 06:55:48;;;;;;;2.25;1.33;;;22.00;99.90;;;;;;4112568;28;20679;-85
2023/08/25 06:57:49;;;;;;;4.00;1.65;;;22.00;99.90;;;;;;4115993;28;20532;-85
2023/08/25 06:59:50;;;;;;;3.13;1.60;;;21.90;99.90;;;;;;4115847;28;20178;-85
2023/08/25 07:01:51;;;;;;;2.30;1.48;;;21.60;99.90;;;;;;4115845;28;20186;-85
2023/08/25 07:03:52;;;;;;;5.35;1.80;;;21.60;99.90;;;;;;4131956;28;20181;-86
2023/08/25 07:05:59;;;;;;;4.78;2.53;;;21.60;99.90;;;;;;4099731;29;20167;-85
2023/08/25 07:08:00;;;;;;;3.25;1.88;;;21.50;99.90;;;;;;4115800;28;20180;-85
2023/08/25 07:10:01;;;;;;;3.28;1.80;;;21.50;99.90;;;;;;4099534;29;20211;-85
2023/08/25 07:12:04;;;;;;;3.65;2.15;;;21.60;99.90;;;;;;4099521;28;20562;-85
2023/08/25 07:14:05;;;;;;;3.15;2.03;;;21.30;99.90;;;;;;4115630;28;20652;-85
2023/08/25 07:16:06;;;;;;;3.53;1.73;;;21.00;99.90;;;;;;4115743;28;20302;-85
2023/08/25 07:18:07;;;;;;;2.08;1.77;;;21.00;99.90;;;;;;4115686;28;20186;-86
2023/08/25 07:20:08;;;;;;;2.28;1.42;;;21.10;99.90;;;;;;4115795;28;20186;-85
2023/08/25 07:22:09;;;;;;;3.65;2.00;;;21.20;99.90;;;;;;4115083;28;20687;-85
2023/08/25 07:24:10;;;;;;;4.40;2.38;;;21.10;99.90;;;;;;4131655;28;20237;-84
2023/08/25 07:26:10;;;;;;;7.35;3.05;;;21.00;99.90;;;;;;4115735;28;20166;-86
2023/08/25 07:28:11;;;;;;;7.38;2.42;;;20.90;99.90;;;;;;4131853;28;20312;-87
2023/08/25 07:30:12;;;;;;;2.83;2.20;;;20.70;99.90;;;;;;4131807;28;20217;-89
2023/08/25 07:32:13;;;;;;;8.13;3.45;;;20.50;99.90;;;;;;4100039;28;20222;-87
2023/08/25 07:34:13;;;;;;;3.72;2.35;;;20.50;99.90;;;;;;4115961;28;20182;-87
2023/08/25 07:36:14;;;;;;;5.30;2.75;;;20.50;99.90;;;;;;4115526;28;20189;-87
2023/08/25 07:38:15;;;;;;;5.07;2.78;;;20.50;99.90;;;;;;4115692;28;20723;-87
2023/08/25 07:40:15;;;;;;;5.45;2.63;;;20.40;99.90;;;;;;4131900;28;20178;-86
2023/08/25 07:42:16;;;;;;;4.75;2.63;;;20.50;99.90;;;;;;4115572;28;20193;-86
2023/08/25 07:44:17;;;;;;;4.88;2.83;;;20.30;99.90;;;;;;4115725;28;20214;-85
2023/08/25 07:46:17;;;;;;;5.53;2.63;;;20.30;99.90;;;;;;4115827;28;20539;-86
2023/08/25 07:48:18;;;;;;;7.88;3.42;;;20.30;99.90;;;;;;4115493;28;20264;-86
2023/08/25 07:50:19;;;;;;;4.63;2.45;;;20.50;99.90;;;;;;4115645;28;20782;-86
2023/08/25 07:52:20;;;;;;;7.00;2.65;;;20.60;99.90;;;;;;4115170;28;20190;-86
2023/08/25 07:54:20;;;;;;;4.13;2.75;;;20.70;99.90;;;;;;4099201;29;20175;-85
2023/08/25 07:56:21;;;;;;;6.10;2.28;;;20.80;99.90;;;;;;4115483;28;20181;-86
2023/08/25 07:58:22;;;;;;;4.10;2.58;;;20.80;99.90;;;;;;4115432;28;20205;-86
2023/08/25 08:00:23;;;;;;;3.67;2.63;;;20.90;99.90;;;;;;4099378;29;20185;-86
2023/08/25 08:02:25;;;;;;;5.82;2.80;;;20.90;99.90;;;;;;4099643;28;20570;-86
2023/08/25 08:04:26;;;;;;;7.93;2.78;;;20.90;99.90;;;;;;4115405;28;20182;-86
2023/08/25 08:06:27;;;;;;;5.35;2.60;;;20.90;99.90;;;;;;4133773;28;20537;-86
2023/08/25 08:08:27;;;;;;;8.00;2.67;;;20.90;99.90;;;;;;4102641;29;20716;-86
2023/08/25 08:10:29;;;;;;;5.90;2.45;;;20.90;99.90;;;;;;4118734;28;20758;-86
2023/08/25 08:12:30;;;;;;;6.40;2.30;;;21.00;99.90;;;;;;4102427;28;20198;-85
2023/08/25 08:14:35;;;;;;;7.13;3.15;;;21.00;99.90;;;;;;4118611;28;20285;-86
2023/08/25 08:16:36;;;;;;;6.22;2.97;;;21.10;99.90;;;;;;4118685;28;20170;-85
2023/08/25 08:18:36;;;;;;;5.55;2.92;;;21.10;99.90;;;;;;4118801;28;20645;-86
2023/08/25 08:20:37;;;;;;;5.75;3.25;;;21.20;99.90;;;;;;4118608;28;20237;-86
2023/08/25 08:22:41;;;;;;;5.30;3.03;;;21.20;99.90;;;;;;4118395;28;20293;-86
2023/08/25 08:24:47;;;;;;;5.20;2.28;;;21.40;99.90;;;;;;4118428;28;20174;-85
2023/08/25 08:26:49;;;;;;;5.80;2.83;;;21.60;99.90;;;;;;4118266;28;20236;-85
2023/08/25 08:28:50;;;;;;;10.15;3.22;;;21.80;99.90;;;;;;4118229;28;20583;-85
2023/08/25 08:30:50;;;;;;;6.05;3.28;;;22.00;99.90;;;;;;4118011;28;20250;-86
2023/08/25 08:32:51;;;;;;;6.30;3.05;;;22.20;99.90;;;;;;4118345;28;20170;-86
2023/08/25 08:34:52;;;;;;;7.95;3.00;;;22.30;99.90;;;;;;4135412;28;20169;-86
2023/08/25 08:36:52;;;;;;;7.60;3.42;;;22.60;99.90;;;;;;4118161;28;20705;-86
2023/08/25 08:38:53;;;;;;;7.47;4.38;;;22.90;99.90;;;;;;4118471;28;20186;-85
2023/08/25 08:41:01;;;;;;;13.80;4.00;;;23.00;99.90;;;;;;4118240;28;20699;-85
2023/08/25 08:43:02;;;;;;;9.95;4.00;;;23.30;99.90;;;;;;4118024;28;20910;-85
2023/08/25 08:45:09;;;;;;;10.10;4.43;;;23.30;99.90;;;;;;4134122;28;20240;-85
2023/08/25 08:47:10;;;;;;;12.40;5.07;;;23.40;99.90;;;;;;4102100;29;20190;-85
2023/08/25 08:49:11;;;;;;;8.50;4.00;;;23.40;99.90;;;;;;4118165;28;20559;-85
2023/08/25 08:51:15;;;;;;;9.07;4.47;;;23.50;99.90;;;;;;4117865;28;20304;-85
2023/08/25 08:53:16;;;;;;;11.65;4.97;;;23.70;99.90;;;;;;4117865;28;20170;-86
2023/08/25 08:55:20;;;;;;;14.10;6.03;;;23.90;99.90;;;;;;4117903;28;20186;-85
2023/08/25 08:57:20;;;;;;;11.70;5.65;;;23.90;99.90;;;;;;4117799;28;20174;-85
2023/08/25 08:59:22;;;;;;;11.48;5.43;;;23.70;99.90;;;;;;4117975;28;20189;-85
2023/08/25 09:01:23;;;;;;;11.70;5.85;;;23.80;99.90;;;;;;4117781;28;20206;-88
2023/08/25 09:03:26;;;;;;;14.13;5.78;;;24.10;99.90;;;;;;4117803;28;20230;-86
2023/08/25 09:05:28;;;;;;;13.20;5.78;;;24.30;99.90;;;;;;4133750;28;20576;-85
2023/08/25 09:07:31;;;;;;;15.30;7.60;;;24.50;99.90;;;;;;4117612;28;20325;-86
2023/08/25 09:09:31;;;;;;;11.57;5.97;;;24.50;99.90;;;;;;4117677;28;20186;-85
2023/08/25 09:11:32;;;;;;;12.90;6.00;;;24.50;99.90;;;;;;4117141;28;20218;-85
2023/08/25 09:13:34;;;;;;;11.57;5.68;;;24.30;99.90;;;;;;4101485;29;20194;-85
2023/08/25 09:15:35;;;;;;;11.32;5.53;;;24.20;99.90;;;;;;4101572;29;20175;-84
2023/08/25 09:17:37;;;;;;;10.52;5.93;;;24.20;99.90;;;;;;4117201;28;20174;-85
2023/08/25 09:19:38;;;;;;;10.80;6.00;;;24.20;99.90;;;;;;4117286;28;20566;-85
2023/08/25 09:21:45;;;;;;;14.55;6.35;;;24.30;99.90;;;;;;4101397;28;20276;-85
2023/08/25 09:24:17;;;;;;;13.10;5.57;;;24.20;99.90;;;;;;4117381;28;20165;-85
2023/08/25 09:26:18;;;;;;;14.93;6.75;;;24.20;99.90;;;;;;4116190;28;20190;-85
2023/08/25 09:28:24;;;;;;;10.48;5.68;;;24.20;99.90;;;;;;4117500;28;20210;-85
2023/08/25 09:30:41;;;;;;;13.27;6.70;;;24.40;99.90;;;;;;4117289;28;20210;-85
2023/08/25 09:32:42;;;;;;;11.25;5.10;;;24.00;99.90;;;;;;4101293;28;20203;-84
2023/08/25 09:34:43;;;;;;;17.60;5.45;;;23.80;99.90;;;;;;4117112;28;20163;-85
2023/08/25 09:36:52;;;;;;;12.20;6.15;;;23.80;99.90;;;;;;4133195;28;20201;-85
2023/08/25 09:38:53;;;;;;;12.05;4.75;;;23.90;99.90;;;;;;4117117;28;20199;-84
2023/08/25 09:40:53;;;;;;;9.02;5.05;;;23.60;99.90;;;;;;4101052;28;20626;-85
2023/08/25 09:43:02;;;;;;;10.25;4.68;;;23.60;99.90;;;;;;4133187;28;20232;-84
2023/08/25 09:45:03;;;;;;;10.07;4.78;;;23.70;99.90;;;;;;4100710;28;20261;-85
2023/08/25 09:47:07;;;;;;;9.90;5.13;;;23.60;99.90;;;;;;4132989;28;20245;-84
2023/08/25 09:49:11;;;;;;;11.55;5.38;;;23.50;99.90;;;;;;4132994;28;20173;-85
2023/08/25 09:51:15;;;;;;;15.48;5.00;;;23.40;99.90;;;;;;4116807;28;20735;-85
2023/08/25 09:53:16;;;;;;;10.80;5.13;;;23.60;99.90;;;;;;4116800;28;20171;-85
2023/08/25 09:55:18;;;;;;;10.30;5.28;;;23.60;99.90;;;;;;4100695;28;20195;-84
2023/08/25 09:57:20;;;;;;;10.63;5.57;;;23.70;99.90;;;;;;4132764;28;20174;-85
2023/08/25 09:59:21;;;;;;;13.07;5.28;;;23.90;99.90;;;;;;4132905;28;20184;-85
2023/08/25 10:01:22;;;;;;;8.38;4.70;;;24.20;99.90;;;;;;4116701;28;20561;-84
2023/08/25 10:03:23;;;;;;;10.20;5.38;;;24.30;99.90;;;;;;4116632;28;20191;-88
2023/08/25 10:05:24;;;;;;;11.85;5.28;;;24.30;99.90;;;;;;4133814;28;20213;-84
2023/08/25 10:07:25;;;;;;;8.30;4.43;;;24.50;99.90;;;;;;4100750;29;20171;-84
2023/08/25 10:09:26;;;;;;;11.32;5.10;;;24.40;99.90;;;;;;4116647;28;20587;-85
2023/08/25 10:11:33;;;;;;;9.80;5.55;;;24.50;99.90;;;;;;4100547;28;20246;-84
2023/08/25 10:13:35;;;;;;;9.48;5.20;;;24.00;99.90;;;;;;4116382;28;20176;-84
2023/08/25 10:15:40;;;;;;;9.80;5.30;;;23.40;99.90;;;;;;4133759;28;20653;-84
2023/08/25 10:17:41;;;;;;;11.95;5.93;;;22.90;99.90;;;;;;4116456;28;20254;-84
2023/08/25 10:19:42;;;;;;;10.70;5.22;;;22.60;99.90;;;;;;4133680;28;20196;-84
2023/08/25 10:21:46;;;;;;;11.70;5.25;;;22.40;99.90;;;;;;4116082;28;20202;-84
2023/08/25 10:23:51;;;;;;;12.07;5.60;;;22.30;99.90;;;;;;4116281;28;20678;-83
2023/08/25 10:25:52;;;;;;;8.80;5.03;;;22.30;99.90;;;;;;4100080;29;20182;-84
2023/08/25 10:27:54;;;;;;;12.05;5.68;;;22.20;99.90;;;;;;4100592;29;20267;-84
2023/08/25 10:29:56;;;;;;;10.07;5.63;;;22.20;99.90;;;;;;4115239;28;20232;-84
2023/08/25 10:32:02;;;;;;;16.27;6.55;;;22.20;99.90;;;;;;4100346;28;20205;-84
2023/08/25 10:34:02;;;;;;;12.70;5.97;;;22.20;99.90;;;;;;4116236;28;20173;-84